ZNZ weather

Abeid Amani Karume International Airport
Zanzibar, Kaskazini Unguja Region, Tanzania

Public forecast

Using degrees Celsius for public forecast. Weather courtesy of forecast.io.

METAR (pilot weather report)

Retrieved 2019/03/22 14:00 UTC (41 minutes ago):

HTZA 221400Z 08010KT 9999 FEW022 33/24 Q1007 NOSIG

TAF (pilot weather forecast)

Forecast is more than 6 hours old.

Retrieved 2019/03/22 06:54 UTC (8 hours ago):

TAF HTZA 220500Z 2206/2306 01010KT 9999 BKN018 SCT080 BECMG 2210/2212 07010KT FEW024 BECMG 2218/2220 00000KT